createdAt,value
2018-04-08T00:01:47.619Z,99.90
2018-04-08T00:04:16.588Z,99.90
2018-04-08T00:06:44.698Z,99.90
2018-04-08T00:09:12.907Z,99.90
2018-04-08T00:11:43.751Z,99.90
2018-04-08T00:14:11.999Z,99.90
2018-04-08T00:16:40.161Z,99.90
2018-04-08T00:19:09.155Z,99.90
2018-04-08T00:21:37.515Z,99.90
2018-04-08T00:24:06.139Z,99.90
2018-04-08T00:26:34.219Z,99.90
2018-04-08T00:29:02.316Z,99.90
2018-04-08T00:31:30.414Z,99.90
2018-04-08T00:33:58.522Z,99.90
2018-04-08T00:36:26.688Z,99.90
2018-04-08T00:38:54.785Z,99.90
2018-04-08T00:41:22.900Z,99.90
2018-04-08T00:43:51.015Z,99.90
2018-04-08T00:46:19.100Z,99.90
2018-04-08T00:48:47.374Z,99.90
2018-04-08T00:51:16.253Z,99.90
2018-04-08T00:53:44.345Z,99.90
2018-04-08T00:56:12.447Z,99.90
2018-04-08T00:58:41.301Z,99.90
2018-04-08T01:01:11.368Z,99.90
2018-04-08T01:03:39.455Z,99.90
2018-04-08T01:06:09.346Z,99.90
2018-04-08T01:08:37.730Z,99.90
2018-04-08T01:11:05.817Z,99.90
2018-04-08T01:13:33.912Z,99.90
2018-04-08T01:16:02.060Z,99.90
2018-04-08T01:18:30.164Z,99.90
2018-04-08T01:20:58.274Z,99.90
2018-04-08T01:23:26.362Z,99.90
2018-04-08T01:25:54.460Z,99.90
2018-04-08T01:28:22.535Z,99.90
2018-04-08T01:30:51.540Z,99.90
2018-04-08T01:33:19.623Z,99.90
2018-04-08T01:35:47.733Z,99.90
2018-04-08T01:38:15.915Z,99.90
2018-04-08T01:40:44.133Z,99.90
2018-04-08T01:43:12.239Z,99.90
2018-04-08T01:45:41.072Z,99.90
2018-04-08T01:48:09.455Z,99.90
2018-04-08T01:50:37.914Z,99.90
2018-04-08T01:53:06.023Z,99.90
2018-04-08T01:55:34.106Z,99.90
2018-04-08T01:58:02.240Z,99.90
2018-04-08T02:00:30.372Z,99.90
2018-04-08T02:02:58.468Z,99.90
2018-04-08T02:05:26.559Z,99.90
2018-04-08T02:07:54.645Z,99.90
2018-04-08T02:10:22.884Z,99.90
2018-04-08T02:12:50.990Z,99.90
2018-04-08T02:15:19.272Z,99.90
2018-04-08T02:17:47.361Z,99.90
2018-04-08T02:20:15.667Z,99.90
2018-04-08T02:22:44.521Z,99.90
2018-04-08T02:25:12.628Z,99.90
2018-04-08T02:27:41.480Z,99.90
2018-04-08T02:30:09.583Z,99.90
2018-04-08T02:32:38.559Z,99.90
2018-04-08T02:35:08.674Z,99.90
2018-04-08T02:37:36.761Z,99.90
2018-04-08T02:40:05.624Z,99.90
2018-04-08T02:42:33.933Z,99.90
2018-04-08T02:45:02.129Z,99.90
2018-04-08T02:47:30.232Z,99.90
2018-04-08T02:49:58.366Z,99.90
2018-04-08T02:52:27.220Z,99.90
2018-04-08T02:54:55.303Z,99.90
2018-04-08T02:57:23.456Z,99.90
2018-04-08T02:59:51.552Z,99.90
2018-04-08T03:02:19.640Z,99.90
2018-04-08T03:04:48.507Z,99.90
2018-04-08T03:07:17.541Z,99.90
2018-04-08T03:09:45.644Z,99.90
2018-04-08T03:12:13.802Z,99.90
2018-04-08T03:14:41.939Z,99.90
2018-04-08T03:17:10.798Z,99.90
2018-04-08T03:19:38.908Z,99.90
2018-04-08T03:22:07.791Z,99.90
2018-04-08T03:24:35.866Z,99.90
2018-04-08T03:27:04.794Z,99.90
2018-04-08T03:29:32.874Z,99.90
2018-04-08T03:32:00.974Z,99.90
2018-04-08T03:34:29.064Z,99.90
2018-04-08T03:36:57.172Z,99.90
2018-04-08T03:39:25.248Z,99.90
2018-04-08T03:41:53.359Z,99.90
2018-04-08T03:44:21.439Z,99.90
2018-04-08T03:46:49.531Z,99.90
2018-04-08T03:49:17.631Z,99.90
2018-04-08T03:51:45.716Z,99.90
2018-04-08T03:54:13.876Z,99.90
2018-04-08T03:56:41.964Z,99.90
2018-04-08T03:59:10.070Z,99.90
2018-04-08T04:01:38.471Z,99.90
2018-04-08T04:04:08.136Z,99.90
2018-04-08T04:06:36.217Z,99.90
2018-04-08T04:09:04.311Z,99.90
2018-04-08T04:11:32.412Z,99.90
2018-04-08T04:14:01.277Z,99.90
2018-04-08T04:16:29.378Z,99.90
2018-04-08T04:19:15.320Z,99.90
2018-04-08T04:22:01.203Z,99.90
2018-04-08T04:27:43.552Z,99.90
2018-04-08T04:30:11.634Z,99.90
2018-04-08T04:32:39.748Z,99.90
2018-04-08T04:35:07.827Z,99.90
2018-04-08T04:37:36.227Z,99.90
2018-04-08T04:40:05.337Z,99.90
2018-04-08T04:42:33.403Z,99.90
2018-04-08T04:45:01.524Z,99.90
2018-04-08T04:47:29.590Z,99.90
2018-04-08T04:49:57.694Z,99.90
2018-04-08T04:52:25.779Z,99.90
2018-04-08T04:54:53.872Z,99.90
2018-04-08T04:57:21.953Z,99.90
2018-04-08T04:59:50.143Z,99.90
2018-04-08T05:02:18.995Z,99.90
2018-04-08T05:04:47.110Z,99.90
2018-04-08T05:07:15.188Z,99.90
2018-04-08T05:09:43.286Z,99.90
2018-04-08T05:12:11.448Z,99.90
2018-04-08T05:14:39.526Z,99.90
2018-04-08T05:17:07.632Z,99.90
2018-04-08T05:19:35.761Z,99.90
2018-04-08T05:22:04.644Z,99.90
2018-04-08T05:24:33.898Z,99.90
2018-04-08T05:27:02.004Z,99.90
2018-04-08T05:29:30.092Z,99.90
2018-04-08T05:31:58.957Z,99.90
2018-04-08T05:34:27.030Z,99.90
2018-04-08T05:36:55.162Z,99.90
2018-04-08T05:39:23.235Z,99.90
2018-04-08T05:41:51.320Z,99.90
2018-04-08T05:44:19.430Z,99.90
2018-04-08T05:46:47.656Z,99.90
2018-04-08T05:49:15.772Z,99.90
2018-04-08T05:51:43.848Z,99.90
2018-04-08T05:54:11.948Z,99.90
2018-04-08T05:56:40.047Z,99.90
2018-04-08T05:59:08.156Z,99.90
2018-04-08T06:01:36.271Z,99.90
2018-04-08T06:04:04.356Z,99.90
2018-04-08T06:06:32.448Z,99.90
2018-04-08T06:09:00.540Z,99.90
2018-04-08T06:11:28.633Z,99.90
2018-04-08T06:13:58.555Z,99.90
2018-04-08T06:16:28.262Z,99.90
2018-04-08T06:18:57.106Z,99.90
2018-04-08T06:21:25.372Z,99.90
2018-04-08T06:23:53.600Z,99.90
2018-04-08T06:26:21.997Z,99.90
2018-04-08T06:28:50.076Z,99.90
2018-04-08T06:31:18.426Z,99.90
2018-04-08T06:33:47.279Z,99.90
2018-04-08T06:36:15.387Z,99.90
2018-04-08T06:38:43.495Z,99.90
2018-04-08T06:41:11.607Z,99.90
2018-04-08T06:43:39.685Z,99.90
2018-04-08T06:46:11.364Z,99.90
2018-04-08T06:48:40.207Z,99.90
2018-04-08T06:51:09.799Z,99.90
2018-04-08T06:53:37.895Z,99.90
2018-04-08T06:56:05.966Z,99.90
2018-04-08T06:58:34.071Z,99.90
2018-04-08T07:01:02.926Z,99.90
2018-04-08T07:03:31.043Z,99.90
2018-04-08T07:05:59.894Z,99.90
2018-04-08T07:08:27.991Z,99.90
2018-04-08T07:10:56.280Z,99.90
2018-04-08T07:13:24.484Z,99.90
2018-04-08T07:15:52.616Z,99.90
2018-04-08T07:18:21.487Z,99.90
2018-04-08T07:20:49.545Z,99.90
2018-04-08T07:23:17.643Z,99.90
2018-04-08T07:25:45.747Z,99.90
2018-04-08T07:28:14.584Z,99.90
2018-04-08T07:30:43.090Z,99.90
2018-04-08T07:33:11.190Z,99.90
2018-04-08T07:35:40.040Z,99.90
2018-04-08T07:38:08.150Z,99.90
2018-04-08T07:40:36.998Z,99.90
2018-04-08T07:43:05.093Z,99.90
2018-04-08T07:45:33.192Z,99.90
2018-04-08T07:48:01.307Z,99.90
2018-04-08T07:50:29.406Z,99.90
2018-04-08T07:52:58.098Z,99.90
2018-04-08T07:55:26.208Z,99.90
2018-04-08T07:57:54.321Z,99.90
2018-04-08T08:00:22.440Z,99.90
2018-04-08T08:02:50.542Z,99.90
2018-04-08T08:05:22.315Z,99.90
2018-04-08T08:07:50.402Z,99.90
2018-04-08T08:10:18.478Z,99.90
2018-04-08T08:12:46.596Z,99.90
2018-04-08T08:15:15.697Z,99.90
2018-04-08T08:17:43.794Z,99.90
2018-04-08T08:20:11.900Z,99.90
2018-04-08T08:22:39.997Z,99.90
2018-04-08T08:25:09.033Z,99.90
2018-04-08T08:27:37.111Z,99.90
2018-04-08T08:30:05.223Z,99.90
2018-04-08T08:32:33.304Z,99.90
2018-04-08T08:35:02.196Z,99.90
2018-04-08T08:37:30.296Z,99.90
2018-04-08T08:39:58.398Z,99.90
2018-04-08T08:42:26.509Z,99.90
2018-04-08T08:44:55.360Z,99.30
2018-04-08T08:47:24.498Z,99.30
2018-04-08T08:49:53.340Z,98.80
2018-04-08T08:52:21.455Z,98.80
2018-04-08T08:54:50.363Z,97.60
2018-04-08T08:57:18.407Z,97.50
2018-04-08T08:59:46.540Z,97.60
2018-04-08T09:02:14.637Z,97.40
2018-04-08T09:04:43.116Z,96.50
2018-04-08T09:07:11.212Z,96.30
2018-04-08T09:09:40.100Z,96.10
2018-04-08T09:12:09.021Z,95.30
2018-04-08T09:14:37.863Z,96.90
2018-04-08T09:17:05.985Z,96.80
2018-04-08T09:19:34.401Z,96.10
2018-04-08T09:22:03.686Z,94.40
2018-04-08T09:24:32.681Z,94.20
2018-04-08T09:27:01.343Z,94.20
2018-04-08T09:29:29.448Z,93.50
2018-04-08T09:31:57.554Z,93.20
2018-04-08T09:34:25.657Z,93.90
2018-04-08T09:36:53.755Z,93.80
2018-04-08T09:39:21.862Z,92.40
2018-04-08T09:41:49.984Z,91.80
2018-04-08T09:44:18.077Z,91.10
2018-04-08T09:46:46.202Z,92.30
2018-04-08T09:49:14.317Z,93.30
2018-04-08T09:51:42.403Z,93.00
2018-04-08T09:54:10.531Z,91.10
2018-04-08T09:56:38.612Z,92.60
2018-04-08T09:59:06.719Z,92.40
2018-04-08T10:01:41.213Z,91.50
2018-04-08T10:04:09.313Z,91.50
2018-04-08T10:06:37.414Z,91.60
2018-04-08T10:09:07.027Z,90.80
2018-04-08T10:11:35.328Z,90.80
2018-04-08T10:14:05.079Z,91.20
2018-04-08T10:16:33.184Z,91.20
2018-04-08T10:19:01.321Z,90.50
2018-04-08T10:21:29.416Z,89.60
2018-04-08T10:23:57.525Z,90.10
2018-04-08T10:26:25.644Z,89.00
2018-04-08T10:28:53.731Z,87.80
2018-04-08T10:31:21.835Z,88.70
2018-04-08T10:33:49.946Z,88.50
2018-04-08T10:36:18.091Z,86.80
2018-04-08T10:38:46.170Z,86.70
2018-04-08T10:41:14.296Z,88.50
2018-04-08T10:43:42.440Z,87.90
2018-04-08T10:46:10.541Z,88.20
2018-04-08T10:48:38.649Z,87.10
2018-04-08T10:51:06.744Z,84.60
2018-04-08T10:53:34.919Z,85.60
2018-04-08T10:56:03.035Z,85.20
2018-04-08T10:58:32.214Z,84.90
2018-04-08T11:01:01.202Z,85.50
2018-04-08T11:03:29.304Z,85.30
2018-04-08T11:05:57.412Z,84.20
2018-04-08T11:08:25.528Z,84.80
2018-04-08T11:10:53.640Z,83.40
2018-04-08T11:13:22.490Z,82.20
2018-04-08T11:15:50.601Z,82.20
2018-04-08T11:18:18.724Z,80.30
2018-04-08T11:20:47.595Z,82.00
2018-04-08T11:23:15.739Z,82.50
2018-04-08T11:25:44.754Z,81.30
2018-04-08T11:28:12.860Z,81.20
2018-04-08T11:30:40.947Z,82.10
2018-04-08T11:33:09.103Z,81.30
2018-04-08T11:35:37.209Z,81.00
2018-04-08T11:38:05.340Z,80.30
2018-04-08T11:40:33.755Z,78.70
2018-04-08T11:43:03.350Z,79.10
2018-04-08T11:45:31.484Z,78.60
2018-04-08T11:47:59.627Z,79.40
2018-04-08T11:50:28.515Z,81.60
2018-04-08T11:52:56.851Z,81.60
2018-04-08T11:55:25.258Z,79.50
2018-04-08T11:57:53.497Z,79.40
2018-04-08T12:00:21.592Z,79.30
2018-04-08T12:02:50.264Z,77.20
2018-04-08T12:05:18.359Z,77.20
2018-04-08T12:07:46.468Z,76.20
2018-04-08T12:10:15.530Z,78.90
2018-04-08T12:12:43.632Z,76.10
2018-04-08T12:15:12.009Z,74.70
2018-04-08T12:17:40.124Z,76.40
2018-04-08T12:20:08.202Z,75.10
2018-04-08T12:22:37.339Z,73.60
2018-04-08T12:25:05.451Z,73.80
2018-04-08T12:27:33.547Z,73.70
2018-04-08T12:30:02.591Z,76.90
2018-04-08T12:32:30.686Z,79.70
2018-04-08T12:34:58.843Z,88.90
2018-04-08T12:37:26.985Z,73.10
2018-04-08T12:39:55.072Z,72.70
2018-04-08T12:42:23.293Z,74.50
2018-04-08T12:44:51.394Z,72.30
2018-04-08T12:47:19.519Z,73.60
2018-04-08T12:49:47.621Z,72.30
2018-04-08T12:52:15.754Z,77.50
2018-04-08T12:54:43.836Z,74.30
2018-04-08T12:57:11.930Z,81.50
2018-04-08T12:59:40.028Z,71.60
2018-04-08T13:02:08.193Z,67.40
2018-04-08T13:04:36.386Z,66.90
2018-04-08T13:07:04.476Z,71.20
2018-04-08T13:09:32.608Z,67.70
2018-04-08T13:12:00.711Z,69.20
2018-04-08T13:14:28.979Z,70.80
2018-04-08T13:16:57.108Z,72.90
2018-04-08T13:19:25.207Z,69.60
2018-04-08T13:21:53.313Z,69.50
2018-04-08T13:24:22.204Z,68.90
2018-04-08T13:26:51.097Z,64.70
2018-04-08T13:29:19.183Z,64.70
2018-04-08T13:31:48.038Z,64.50
2018-04-08T13:34:16.163Z,64.30
2018-04-08T13:36:44.272Z,63.50
2018-04-08T13:39:12.373Z,62.40
2018-04-08T13:41:40.583Z,65.20
2018-04-08T13:44:08.675Z,64.70
2018-04-08T13:46:37.719Z,68.30
2018-04-08T13:49:05.839Z,67.70
2018-04-08T13:51:33.962Z,66.30
2018-04-08T13:54:02.111Z,65.30
2018-04-08T13:56:30.304Z,66.60
2018-04-08T13:58:59.216Z,64.40
2018-04-08T14:01:27.365Z,66.20
2018-04-08T14:03:55.587Z,62.30
2018-04-08T14:06:23.919Z,64.80
2018-04-08T14:08:52.920Z,63.90
2018-04-08T14:11:21.188Z,63.40
2018-04-08T14:13:49.337Z,61.30
2018-04-08T14:16:17.521Z,64.90
2018-04-08T14:18:46.532Z,62.30
2018-04-08T14:21:14.673Z,66.30
2018-04-08T14:23:42.790Z,63.00
2018-04-08T14:26:11.781Z,63.50
2018-04-08T14:28:40.670Z,64.20
2018-04-08T14:31:08.928Z,64.20
2018-04-08T14:33:37.678Z,63.60
2018-04-08T14:36:05.771Z,62.40
2018-04-08T14:38:33.893Z,64.00
2018-04-08T14:41:01.975Z,65.60
2018-04-08T14:43:30.124Z,59.30
2018-04-08T14:45:59.021Z,59.40
2018-04-08T14:48:27.139Z,59.40
2018-04-08T14:50:55.320Z,61.10
2018-04-08T14:53:23.429Z,62.50
2018-04-08T14:55:51.549Z,58.70
2018-04-08T14:58:19.702Z,59.60
2018-04-08T15:00:47.916Z,58.90
2018-04-08T15:03:16.010Z,63.90
2018-04-08T15:05:44.092Z,61.00
2018-04-08T15:08:12.204Z,60.90
2018-04-08T15:10:40.298Z,61.30
2018-04-08T15:13:08.389Z,63.30
2018-04-08T15:15:36.475Z,60.60
2018-04-08T15:18:04.580Z,60.30
2018-04-08T15:20:33.432Z,58.10
2018-04-08T15:23:01.515Z,58.10
2018-04-08T15:25:29.621Z,56.30
2018-04-08T15:27:58.459Z,57.10
2018-04-08T15:30:26.600Z,57.10
2018-04-08T15:32:54.667Z,57.40
2018-04-08T15:35:22.911Z,56.30
2018-04-08T15:37:51.004Z,57.90
2018-04-08T15:40:19.124Z,56.20
2018-04-08T15:42:49.288Z,57.50
2018-04-08T15:45:18.167Z,56.80
2018-04-08T15:47:46.272Z,56.90
2018-04-08T15:50:14.374Z,56.70
2018-04-08T15:52:42.496Z,57.30
2018-04-08T15:55:10.582Z,56.10
2018-04-08T15:57:40.415Z,58.70
2018-04-08T16:00:09.733Z,58.60
2018-04-08T16:02:37.817Z,59.10
2018-04-08T16:05:07.059Z,60.10
2018-04-08T16:07:35.948Z,58.10
2018-04-08T16:10:04.809Z,58.40
2018-04-08T16:12:32.895Z,58.50
2018-04-08T16:15:00.994Z,58.90
2018-04-08T16:17:29.076Z,59.30
2018-04-08T16:19:57.211Z,59.60
2018-04-08T16:22:25.298Z,58.70
2018-04-08T16:24:54.166Z,62.30
2018-04-08T16:27:22.382Z,62.20
2018-04-08T16:29:50.468Z,59.00
2018-04-08T16:32:18.600Z,59.20
2018-04-08T16:34:47.463Z,60.80
2018-04-08T16:37:15.563Z,60.70
2018-04-08T16:39:44.411Z,61.50
2018-04-08T16:42:12.499Z,60.50
2018-04-08T16:44:40.588Z,60.50
2018-04-08T16:47:08.743Z,61.60
2018-04-08T16:49:37.664Z,62.10
2018-04-08T16:52:05.746Z,61.80
2018-04-08T16:54:33.847Z,63.00
2018-04-08T16:57:01.941Z,60.90
2018-04-08T16:59:30.024Z,62.90
2018-04-08T17:01:58.145Z,64.70
2018-04-08T17:04:26.276Z,64.90
2018-04-08T17:06:54.343Z,65.90
2018-04-08T17:09:22.505Z,64.90
2018-04-08T17:11:50.569Z,65.70
2018-04-08T17:14:18.641Z,67.20
2018-04-08T17:16:46.739Z,65.70
2018-04-08T17:19:14.839Z,65.60
2018-04-08T17:21:42.947Z,68.30
2018-04-08T17:24:11.095Z,67.90
2018-04-08T17:26:39.972Z,67.90
2018-04-08T17:29:08.825Z,69.50
2018-04-08T17:31:36.940Z,69.50
2018-04-08T17:34:05.789Z,67.60
2018-04-08T17:36:34.831Z,67.60
2018-04-08T17:39:03.675Z,75.80
2018-04-08T17:41:31.786Z,75.90
2018-04-08T17:44:00.653Z,83.50
2018-04-08T17:46:30.563Z,83.30
2018-04-08T17:48:58.634Z,83.90
2018-04-08T17:51:26.746Z,80.20
2018-04-08T17:53:55.661Z,81.20
2018-04-08T17:56:23.742Z,81.20
2018-04-08T17:58:51.886Z,85.10
2018-04-08T18:01:20.020Z,87.40
2018-04-08T18:03:58.259Z,88.50
2018-04-08T18:06:33.896Z,88.00
2018-04-08T18:09:11.581Z,87.80
2018-04-08T18:11:48.912Z,90.00
2018-04-08T18:14:19.824Z,90.80
2018-04-08T18:16:49.606Z,92.00
2018-04-08T18:19:17.692Z,92.00
2018-04-08T18:21:45.800Z,92.00
2018-04-08T18:24:13.901Z,92.80
2018-04-08T18:26:42.034Z,93.50
2018-04-08T18:29:10.185Z,93.50
2018-04-08T18:31:38.276Z,94.80
2018-04-08T18:34:06.382Z,95.60
2018-04-08T18:36:34.462Z,96.50
2018-04-08T18:39:02.605Z,97.30
2018-04-08T18:41:40.535Z,98.90
2018-04-08T18:44:15.372Z,98.80
2018-04-08T18:49:32.675Z,99.60
2018-04-08T18:52:04.826Z,99.90
2018-04-08T18:54:36.949Z,99.90
2018-04-08T18:57:05.072Z,99.90
2018-04-08T18:59:33.944Z,99.90
2018-04-08T19:02:02.083Z,99.90
2018-04-08T19:04:30.461Z,99.90
2018-04-08T19:06:58.583Z,99.90
2018-04-08T19:09:27.441Z,99.90
2018-04-08T19:11:55.623Z,99.90
2018-04-08T19:14:23.731Z,99.90
2018-04-08T19:16:52.799Z,99.90
2018-04-08T19:19:20.902Z,99.90
2018-04-08T19:21:50.765Z,99.90
2018-04-08T19:24:18.887Z,99.90
2018-04-08T19:26:47.154Z,99.90
2018-04-08T19:29:16.146Z,99.90
2018-04-08T19:31:44.997Z,99.90
2018-04-08T19:34:13.211Z,99.90
2018-04-08T19:36:42.103Z,99.90
2018-04-08T19:39:10.962Z,99.90
2018-04-08T19:41:39.068Z,99.90
2018-04-08T19:44:07.204Z,99.90
2018-04-08T19:46:35.298Z,99.90
2018-04-08T19:49:03.412Z,99.90
2018-04-08T19:51:31.759Z,99.90
2018-04-08T19:53:59.936Z,99.90
2018-04-08T19:56:28.803Z,99.90
2018-04-08T19:58:56.908Z,99.90
2018-04-08T20:01:25.816Z,99.90
2018-04-08T20:03:54.227Z,99.90
2018-04-08T20:06:23.186Z,99.90
2018-04-08T20:08:52.139Z,99.90
2018-04-08T20:11:20.216Z,99.90
2018-04-08T20:13:48.327Z,99.90
2018-04-08T20:16:16.439Z,99.90
2018-04-08T20:18:45.107Z,99.90
2018-04-08T20:21:13.360Z,99.90
2018-04-08T20:23:41.439Z,99.90
2018-04-08T20:26:09.544Z,99.90
2018-04-08T20:28:37.662Z,99.90
2018-04-08T20:31:06.530Z,99.90
2018-04-08T20:33:35.205Z,99.90
2018-04-08T20:36:03.316Z,99.90
2018-04-08T20:38:31.384Z,99.90
2018-04-08T20:41:00.246Z,99.90
2018-04-08T20:43:28.348Z,99.90
2018-04-08T20:45:57.220Z,99.90
2018-04-08T20:48:26.084Z,99.90
2018-04-08T20:50:54.194Z,99.90
2018-04-08T20:53:22.528Z,99.90
2018-04-08T20:55:52.707Z,99.90
2018-04-08T20:58:21.538Z,99.90
2018-04-08T21:00:52.761Z,99.90
2018-04-08T21:03:21.730Z,99.90
2018-04-08T21:05:49.893Z,99.90
2018-04-08T21:08:18.778Z,99.90
2018-04-08T21:10:46.886Z,99.90
2018-04-08T21:13:14.999Z,99.90
2018-04-08T21:15:43.108Z,99.90
2018-04-08T21:18:11.967Z,99.90
2018-04-08T21:20:40.066Z,99.90
2018-04-08T21:23:08.999Z,99.90
2018-04-08T21:25:37.110Z,99.90
2018-04-08T21:28:05.501Z,99.90
2018-04-08T21:30:34.524Z,99.90
2018-04-08T21:33:02.677Z,99.90
2018-04-08T21:35:31.553Z,99.90
2018-04-08T21:38:00.438Z,99.90
2018-04-08T21:40:29.104Z,99.90
2018-04-08T21:42:57.201Z,99.90
2018-04-08T21:45:28.949Z,99.90
2018-04-08T21:47:57.755Z,99.90
2018-04-08T21:50:26.619Z,99.90
2018-04-08T21:52:54.747Z,99.90
2018-04-08T21:55:22.863Z,99.90
2018-04-08T21:57:51.040Z,99.90
2018-04-08T22:00:19.158Z,99.90
2018-04-08T22:02:47.735Z,99.90
2018-04-08T22:05:16.581Z,99.90
2018-04-08T22:07:44.687Z,99.90
2018-04-08T22:10:12.773Z,99.90
2018-04-08T22:12:40.925Z,99.90
2018-04-08T22:15:09.777Z,99.90
2018-04-08T22:17:37.865Z,99.90
2018-04-08T22:20:05.977Z,99.90
2018-04-08T22:22:35.284Z,99.90
2018-04-08T22:25:04.005Z,99.90
2018-04-08T22:27:32.091Z,99.90
2018-04-08T22:30:00.204Z,99.90
2018-04-08T22:32:29.180Z,99.90
2018-04-08T22:34:57.785Z,99.90
2018-04-08T22:37:26.630Z,99.90
2018-04-08T22:39:54.710Z,99.90
2018-04-08T22:42:22.801Z,99.90
2018-04-08T22:44:50.873Z,99.90
2018-04-08T22:47:19.695Z,99.90
2018-04-08T22:49:48.708Z,99.90
2018-04-08T22:52:16.792Z,99.90
2018-04-08T22:54:45.348Z,99.90
2018-04-08T22:57:13.450Z,99.90
2018-04-08T22:59:42.375Z,99.90
2018-04-08T23:02:10.481Z,99.90
2018-04-08T23:04:38.562Z,99.90
2018-04-08T23:07:06.625Z,99.90
2018-04-08T23:09:35.173Z,99.90
2018-04-08T23:12:03.288Z,99.90
2018-04-08T23:14:31.363Z,99.90
2018-04-08T23:16:59.476Z,99.90
2018-04-08T23:19:27.550Z,99.90
2018-04-08T23:21:55.643Z,99.90
2018-04-08T23:24:24.243Z,99.90
2018-04-08T23:26:52.390Z,99.90
2018-04-08T23:29:20.470Z,99.90
2018-04-08T23:31:48.556Z,99.90
2018-04-08T23:34:16.638Z,99.90
2018-04-08T23:36:44.728Z,99.90
2018-04-08T23:39:13.567Z,99.90
2018-04-08T23:41:41.666Z,99.90
2018-04-08T23:44:09.738Z,99.90
2018-04-08T23:46:38.568Z,99.90
2018-04-08T23:49:06.651Z,99.90
2018-04-08T23:51:34.726Z,99.90
2018-04-08T23:54:02.814Z,99.90
2018-04-08T23:56:30.881Z,99.90
2018-04-08T23:58:58.993Z,99.90
